createdAt,value
2022-12-26T00:00:39.599Z,7.29
2022-12-26T00:03:28.318Z,7.39
2022-12-26T00:06:18.925Z,7.27
2022-12-26T00:09:09.076Z,6.68
2022-12-26T00:11:57.496Z,7.23
2022-12-26T00:14:46.110Z,7.19
2022-12-26T00:17:34.604Z,7.10
2022-12-26T00:20:23.839Z,7.03
2022-12-26T00:23:12.755Z,6.99
2022-12-26T00:26:05.131Z,6.99
2022-12-26T00:28:54.643Z,6.92
2022-12-26T00:31:43.161Z,6.98
2022-12-26T00:34:31.734Z,6.99
2022-12-26T00:37:20.207Z,6.93
2022-12-26T00:40:10.140Z,6.88
2022-12-26T00:42:59.905Z,6.94
2022-12-26T00:45:49.568Z,6.86
2022-12-26T00:48:38.094Z,6.93
2022-12-26T00:51:26.865Z,6.97
2022-12-26T00:54:15.301Z,6.94
2022-12-26T00:57:03.733Z,6.87
2022-12-26T00:59:53.500Z,6.97
2022-12-26T01:02:42.088Z,6.98
2022-12-26T01:05:30.648Z,7.04
2022-12-26T01:08:24.635Z,7.05
2022-12-26T01:11:36.880Z,7.07
2022-12-26T01:14:25.375Z,7.50
2022-12-26T01:17:15.359Z,7.82
2022-12-26T01:20:04.196Z,8.40
2022-12-26T01:22:52.710Z,8.68
2022-12-26T01:26:17.322Z,8.85
2022-12-26T01:28:50.181Z,8.85
2022-12-26T01:31:38.788Z,8.83
2022-12-26T01:34:28.676Z,8.89
2022-12-26T01:37:17.714Z,8.88
2022-12-26T01:40:07.193Z,9.16
2022-12-26T01:42:55.717Z,9.25
2022-12-26T01:45:45.210Z,9.32
2022-12-26T01:48:34.655Z,9.37
2022-12-26T01:51:27.787Z,9.37
2022-12-26T01:54:40.177Z,9.47
2022-12-26T01:57:28.273Z,9.80
2022-12-26T02:00:17.568Z,9.90
2022-12-26T02:03:25.939Z,10.24
2022-12-26T02:06:15.947Z,10.44
2022-12-26T02:09:06.573Z,10.34
2022-12-26T02:12:35.906Z,9.75
2022-12-26T02:15:10.609Z,10.51
2022-12-26T02:17:59.048Z,10.43
2022-12-26T02:20:56.524Z,10.96
2022-12-26T02:24:13.792Z,11.19
2022-12-26T02:27:09.421Z,11.31
2022-12-26T02:30:34.466Z,11.47
2022-12-26T02:33:35.810Z,11.50
2022-12-26T02:36:36.921Z,11.70
2022-12-26T02:39:44.933Z,11.69
2022-12-26T02:42:44.300Z,11.73
2022-12-26T02:45:54.634Z,11.89
2022-12-26T02:48:48.806Z,12.07
2022-12-26T02:52:03.165Z,12.06
2022-12-26T02:55:13.240Z,12.11
2022-12-26T02:58:22.868Z,12.45
2022-12-26T03:01:36.652Z,12.65
2022-12-26T03:05:00.922Z,12.79
2022-12-26T03:08:07.058Z,12.99
2022-12-26T03:11:14.847Z,13.01
2022-12-26T03:14:08.998Z,12.98
2022-12-26T03:17:17.569Z,13.12
2022-12-26T03:20:12.333Z,13.31
2022-12-26T03:23:03.024Z,13.22
2022-12-26T03:26:11.357Z,13.28
2022-12-26T03:29:19.825Z,13.38
2022-12-26T03:32:09.704Z,13.37
2022-12-26T03:34:58.239Z,13.43
2022-12-26T03:37:53.259Z,13.38
2022-12-26T03:41:06.248Z,13.24
2022-12-26T03:44:23.512Z,13.16
2022-12-26T03:47:36.449Z,13.36
2022-12-26T03:50:50.627Z,13.35
2022-12-26T03:54:02.535Z,13.45
2022-12-26T03:57:11.833Z,13.48
2022-12-26T04:00:30.380Z,13.34
2022-12-26T04:03:37.487Z,13.29
2022-12-26T04:06:45.311Z,13.25
2022-12-26T04:09:57.963Z,13.24
2022-12-26T04:13:04.675Z,13.29
2022-12-26T04:16:13.952Z,13.26
2022-12-26T04:19:25.753Z,13.31
2022-12-26T04:22:35.029Z,13.35
2022-12-26T04:25:50.231Z,13.47
2022-12-26T04:28:57.975Z,13.26
2022-12-26T04:32:06.431Z,13.17
2022-12-26T04:35:16.173Z,13.18
2022-12-26T04:38:23.407Z,13.40
2022-12-26T04:41:30.917Z,13.37
2022-12-26T04:44:23.156Z,13.33
2022-12-26T04:47:12.093Z,13.22
2022-12-26T04:50:15.374Z,13.29
2022-12-26T04:53:03.831Z,13.32
2022-12-26T04:55:52.324Z,13.53
2022-12-26T04:58:42.163Z,13.60
2022-12-26T05:01:48.417Z,13.47
2022-12-26T05:04:53.581Z,13.55
2022-12-26T05:07:59.685Z,13.62
2022-12-26T05:10:48.135Z,13.57
2022-12-26T05:13:36.578Z,13.63
2022-12-26T05:16:45.505Z,13.54
2022-12-26T05:19:51.621Z,13.45
2022-12-26T05:22:59.541Z,13.42
2022-12-26T05:26:05.678Z,13.26
2022-12-26T05:28:58.387Z,13.24
2022-12-26T05:31:48.202Z,13.18
2022-12-26T05:34:35.707Z,13.17
2022-12-26T05:37:24.137Z,13.05
2022-12-26T05:40:13.104Z,12.94
2022-12-26T05:43:01.598Z,12.98
2022-12-26T05:45:50.104Z,13.00
2022-12-26T05:48:39.911Z,13.02
2022-12-26T05:51:28.409Z,12.88
2022-12-26T05:54:16.920Z,12.82
2022-12-26T05:57:05.409Z,12.90
2022-12-26T05:59:53.883Z,12.84
2022-12-26T06:02:42.501Z,12.74
2022-12-26T06:05:32.375Z,12.71
2022-12-26T06:08:20.815Z,12.70
2022-12-26T06:11:11.237Z,12.63
2022-12-26T06:14:00.047Z,12.63
2022-12-26T06:16:48.635Z,12.69
2022-12-26T06:19:41.382Z,12.58
2022-12-26T06:22:34.533Z,12.52
2022-12-26T06:25:23.027Z,12.51
2022-12-26T06:28:11.459Z,12.52
2022-12-26T06:31:03.849Z,12.69
2022-12-26T06:33:55.133Z,12.34
2022-12-26T06:36:43.516Z,12.72
2022-12-26T06:39:33.513Z,12.70
2022-12-26T06:42:21.996Z,12.72
2022-12-26T06:45:11.630Z,12.20
2022-12-26T06:48:00.223Z,12.66
2022-12-26T06:50:48.657Z,12.57
2022-12-26T06:53:37.106Z,12.29
2022-12-26T06:56:28.296Z,12.43
2022-12-26T06:59:16.767Z,12.30
2022-12-26T07:02:05.300Z,12.15
2022-12-26T07:04:53.749Z,12.06
2022-12-26T07:07:42.188Z,11.94
2022-12-26T07:10:30.761Z,11.85
2022-12-26T07:13:20.531Z,11.90
2022-12-26T07:16:09.021Z,11.73
2022-12-26T07:18:59.224Z,11.90
2022-12-26T07:21:47.784Z,11.91
2022-12-26T07:24:36.214Z,11.85
2022-12-26T07:27:24.637Z,11.77
2022-12-26T07:30:15.090Z,11.80
2022-12-26T07:33:03.589Z,11.87
2022-12-26T07:35:52.146Z,11.72
2022-12-26T07:38:40.604Z,11.65
2022-12-26T07:41:47.634Z,11.59
2022-12-26T07:44:36.112Z,11.59
2022-12-26T07:47:25.938Z,11.56
2022-12-26T07:50:14.409Z,11.52
2022-12-26T07:53:03.039Z,11.45
2022-12-26T07:55:51.479Z,11.43
2022-12-26T07:58:39.948Z,11.42
2022-12-26T08:01:28.972Z,11.43
2022-12-26T08:04:18.884Z,11.44
2022-12-26T08:07:07.324Z,11.43
2022-12-26T08:09:55.749Z,11.34
2022-12-26T08:12:44.726Z,11.37
2022-12-26T08:15:33.179Z,11.42
2022-12-26T08:18:21.634Z,11.33
2022-12-26T08:21:11.961Z,11.25
2022-12-26T08:24:00.648Z,11.40
2022-12-26T08:26:49.226Z,11.42
2022-12-26T08:29:37.774Z,11.42
2022-12-26T08:32:26.230Z,11.44
2022-12-26T08:35:14.737Z,11.40
2022-12-26T08:38:05.596Z,11.42
2022-12-26T08:40:56.511Z,11.42
2022-12-26T08:44:24.890Z,11.35
2022-12-26T08:46:54.008Z,11.39
2022-12-26T08:49:42.599Z,11.40
2022-12-26T08:52:31.278Z,11.41
2022-12-26T08:55:21.077Z,11.40
2022-12-26T08:58:09.580Z,11.41
2022-12-26T09:01:07.169Z,11.42
2022-12-26T09:03:56.690Z,11.30
2022-12-26T09:06:45.205Z,11.39
2022-12-26T09:09:33.702Z,11.40
2022-12-26T09:12:23.524Z,11.13
2022-12-26T09:15:12.041Z,11.42
2022-12-26T09:18:00.596Z,11.20
2022-12-26T09:20:49.581Z,11.37
2022-12-26T09:23:38.719Z,11.35
2022-12-26T09:26:27.900Z,11.38
2022-12-26T09:29:17.730Z,11.36
2022-12-26T09:32:06.615Z,11.44
2022-12-26T09:34:55.061Z,11.40
2022-12-26T09:37:43.624Z,11.37
2022-12-26T09:40:37.742Z,11.35
2022-12-26T09:43:32.051Z,11.29
2022-12-26T09:46:29.401Z,11.30
2022-12-26T09:49:20.304Z,11.34
2022-12-26T09:52:13.168Z,10.95
2022-12-26T09:55:04.922Z,11.24
2022-12-26T09:57:56.526Z,11.28
2022-12-26T10:00:49.993Z,11.33
2022-12-26T10:03:42.943Z,10.97
2022-12-26T10:06:37.025Z,11.28
2022-12-26T10:09:42.488Z,11.28
2022-12-26T10:12:40.097Z,11.29
2022-12-26T10:15:35.708Z,11.26
2022-12-26T10:18:33.761Z,11.39
2022-12-26T10:21:32.111Z,11.54
2022-12-26T10:24:23.698Z,11.55
2022-12-26T10:27:15.298Z,11.50
2022-12-26T10:30:07.432Z,11.53
2022-12-26T10:32:58.226Z,11.49
2022-12-26T10:35:47.403Z,11.50
2022-12-26T10:38:42.040Z,11.45
2022-12-26T10:41:36.136Z,11.46
2022-12-26T10:44:27.781Z,11.44
2022-12-26T10:47:24.164Z,11.49
2022-12-26T10:50:16.387Z,11.47
2022-12-26T10:53:07.705Z,11.35
2022-12-26T10:55:58.170Z,11.51
2022-12-26T10:58:46.968Z,11.58
2022-12-26T11:01:37.507Z,11.63
2022-12-26T11:04:52.868Z,11.68
2022-12-26T11:07:37.455Z,11.71
2022-12-26T11:10:27.665Z,11.74
2022-12-26T11:13:22.817Z,11.73
2022-12-26T11:16:11.580Z,11.76
2022-12-26T11:19:00.555Z,11.79
2022-12-26T11:21:49.274Z,11.79
2022-12-26T11:24:37.725Z,11.84
2022-12-26T11:27:26.227Z,11.80
2022-12-26T11:30:28.327Z,11.87
2022-12-26T11:33:25.704Z,11.83
2022-12-26T11:36:20.502Z,11.79
2022-12-26T11:39:20.955Z,11.84
2022-12-26T11:42:10.978Z,11.82
2022-12-26T11:45:01.793Z,11.79
2022-12-26T11:47:52.620Z,11.74
2022-12-26T11:50:45.665Z,11.75
2022-12-26T11:53:34.859Z,11.78
2022-12-26T11:56:27.224Z,11.77
2022-12-26T11:59:19.660Z,11.63
2022-12-26T12:02:25.703Z,11.75
2022-12-26T12:05:17.555Z,11.80
2022-12-26T12:08:17.308Z,11.75
2022-12-26T12:11:13.393Z,11.75
2022-12-26T12:14:14.672Z,11.83
2022-12-26T12:17:08.423Z,11.89
2022-12-26T12:20:11.725Z,11.80
2022-12-26T12:23:32.700Z,11.89
2022-12-26T12:26:27.812Z,11.10
2022-12-26T12:29:35.146Z,11.94
2022-12-26T12:32:26.858Z,11.95
2022-12-26T12:35:25.085Z,12.02
2022-12-26T12:38:27.633Z,11.97
2022-12-26T12:41:31.812Z,12.08
2022-12-26T12:44:23.241Z,12.07
2022-12-26T12:47:19.863Z,11.96
2022-12-26T12:50:15.311Z,11.94
2022-12-26T12:53:13.431Z,11.81
2022-12-26T12:56:15.439Z,11.75
2022-12-26T12:59:12.300Z,11.65
2022-12-26T13:02:09.197Z,11.62
2022-12-26T13:05:06.609Z,11.60
2022-12-26T13:07:58.746Z,11.58
2022-12-26T13:10:50.843Z,11.59
2022-12-26T13:13:46.163Z,11.57
2022-12-26T13:16:43.547Z,11.43
2022-12-26T13:19:38.830Z,11.53
2022-12-26T13:22:50.369Z,11.62
2022-12-26T13:25:43.517Z,11.65
2022-12-26T13:28:37.210Z,11.67
2022-12-26T13:31:25.861Z,11.65
2022-12-26T13:34:18.716Z,11.56
2022-12-26T13:37:07.234Z,11.58
2022-12-26T13:39:55.785Z,11.50
2022-12-26T13:43:04.393Z,11.53
2022-12-26T13:45:56.473Z,11.51
2022-12-26T13:48:59.792Z,11.53
2022-12-26T13:52:19.223Z,11.52
2022-12-26T13:55:33.442Z,11.50
2022-12-26T13:58:34.591Z,11.55
2022-12-26T14:01:36.059Z,11.57
2022-12-26T14:04:36.965Z,11.56
2022-12-26T14:07:32.430Z,11.34
2022-12-26T14:10:24.796Z,11.52
2022-12-26T14:13:43.365Z,11.43
2022-12-26T14:16:38.253Z,11.48
2022-12-26T14:19:40.744Z,11.54
2022-12-26T14:22:39.054Z,11.58
2022-12-26T14:25:30.484Z,11.36
2022-12-26T14:28:24.881Z,11.45
2022-12-26T14:31:22.002Z,11.38
2022-12-26T14:34:19.143Z,11.33
2022-12-26T14:37:17.761Z,11.20
2022-12-26T14:40:21.755Z,10.90
2022-12-26T14:43:26.622Z,11.16
2022-12-26T14:46:48.481Z,11.25
2022-12-26T14:49:42.765Z,11.14
2022-12-26T14:52:40.713Z,11.08
2022-12-26T14:55:48.041Z,11.03
2022-12-26T14:58:40.268Z,10.65
2022-12-26T15:01:50.310Z,11.03
2022-12-26T15:05:04.545Z,10.99
2022-12-26T15:08:36.179Z,11.00
2022-12-26T15:11:47.179Z,11.00
2022-12-26T15:15:12.508Z,10.96
2022-12-26T15:18:29.524Z,11.05
2022-12-26T15:21:55.346Z,10.92
2022-12-26T15:25:23.833Z,10.89
2022-12-26T15:28:28.067Z,10.91
2022-12-26T15:31:35.809Z,10.93
2022-12-26T15:34:40.845Z,10.92
2022-12-26T15:37:40.943Z,10.82
2022-12-26T15:40:31.450Z,10.79
2022-12-26T15:43:32.867Z,10.91
2022-12-26T15:46:24.831Z,10.88
2022-12-26T15:49:33.382Z,10.97
2022-12-26T15:52:30.100Z,10.98
2022-12-26T15:55:34.849Z,10.96
2022-12-26T15:58:38.711Z,10.85
2022-12-26T16:01:37.061Z,10.97
2022-12-26T16:04:30.468Z,11.01
2022-12-26T16:07:24.877Z,10.98
2022-12-26T16:10:29.517Z,10.95
2022-12-26T16:13:22.951Z,10.92
2022-12-26T16:16:13.365Z,10.92
2022-12-26T16:19:18.754Z,10.84
2022-12-26T16:22:25.435Z,10.78
2022-12-26T16:25:16.311Z,10.85
2022-12-26T16:28:06.287Z,10.88
2022-12-26T16:30:54.929Z,10.93
2022-12-26T16:33:45.200Z,10.84
2022-12-26T16:36:35.644Z,10.84
2022-12-26T16:39:24.701Z,10.81
2022-12-26T16:42:29.886Z,10.81
2022-12-26T16:45:20.085Z,10.76
2022-12-26T16:48:10.012Z,10.79
2022-12-26T16:51:01.564Z,10.84
2022-12-26T16:53:49.989Z,10.75
2022-12-26T16:56:38.487Z,10.82
2022-12-26T16:59:30.127Z,10.75
2022-12-26T17:02:22.587Z,10.71
2022-12-26T17:05:18.603Z,10.05
2022-12-26T17:08:08.537Z,10.71
2022-12-26T17:10:57.042Z,10.68
2022-12-26T17:13:50.092Z,10.71
2022-12-26T17:16:38.607Z,10.75
2022-12-26T17:19:29.424Z,10.73
2022-12-26T17:22:27.133Z,10.62
2022-12-26T17:25:26.208Z,10.64
2022-12-26T17:28:25.047Z,10.64
2022-12-26T17:31:15.063Z,10.72
2022-12-26T17:34:08.045Z,10.69
2022-12-26T17:40:16.174Z,10.82
2022-12-26T17:43:08.905Z,10.82
2022-12-26T17:45:57.791Z,10.77
2022-12-26T17:48:46.549Z,10.79
2022-12-26T17:51:35.066Z,10.78
2022-12-26T17:54:23.581Z,10.64
2022-12-26T17:57:18.404Z,10.71
2022-12-26T18:00:16.351Z,10.66
2022-12-26T18:03:05.010Z,10.51
2022-12-26T18:05:56.344Z,10.60
2022-12-26T18:08:44.880Z,10.59
2022-12-26T18:11:33.368Z,10.56
2022-12-26T18:14:21.879Z,10.59
2022-12-26T18:17:15.305Z,10.56
2022-12-26T18:20:04.959Z,10.61
2022-12-26T18:22:53.801Z,10.49
2022-12-26T18:25:42.389Z,10.64
2022-12-26T18:28:30.983Z,10.55
2022-12-26T18:31:19.629Z,10.49
2022-12-26T18:34:09.522Z,10.66
2022-12-26T18:36:58.017Z,10.62
2022-12-26T18:39:46.523Z,10.47
2022-12-26T18:42:35.074Z,10.21
2022-12-26T18:45:23.689Z,10.16
2022-12-26T18:48:15.086Z,10.02
2022-12-26T18:51:06.167Z,9.97
2022-12-26T18:53:55.044Z,9.81
2022-12-26T18:56:43.563Z,9.89
2022-12-26T18:59:32.162Z,9.88
2022-12-26T19:02:21.182Z,9.83
2022-12-26T19:05:21.232Z,9.70
2022-12-26T19:08:11.693Z,9.64
2022-12-26T19:11:00.229Z,9.68
2022-12-26T19:13:48.872Z,9.64
2022-12-26T19:16:39.207Z,9.61
2022-12-26T19:19:29.679Z,9.53
2022-12-26T19:22:18.337Z,9.50
2022-12-26T19:25:08.895Z,9.53
2022-12-26T19:27:57.575Z,9.41
2022-12-26T19:30:46.032Z,9.46
2022-12-26T19:33:34.555Z,9.35
2022-12-26T19:36:23.020Z,9.36
2022-12-26T19:39:11.599Z,9.38
2022-12-26T19:42:01.499Z,9.36
2022-12-26T19:44:50.100Z,9.37
2022-12-26T19:47:38.618Z,9.35
2022-12-26T19:50:27.055Z,9.23
2022-12-26T19:53:15.508Z,9.27
2022-12-26T19:56:08.084Z,9.23
2022-12-26T19:58:57.966Z,9.18
2022-12-26T20:01:46.538Z,9.03
2022-12-26T20:04:35.050Z,9.26
2022-12-26T20:07:23.563Z,9.23
2022-12-26T20:10:12.087Z,9.18
2022-12-26T20:13:00.576Z,9.22
2022-12-26T20:15:50.383Z,9.14
2022-12-26T20:18:39.038Z,8.92
2022-12-26T20:21:27.852Z,9.15
2022-12-26T20:24:18.608Z,9.02
2022-12-26T20:27:07.128Z,8.88
2022-12-26T20:29:55.570Z,8.85
2022-12-26T20:32:47.303Z,8.83
2022-12-26T20:35:35.727Z,8.88
2022-12-26T20:38:24.219Z,8.87
2022-12-26T20:41:13.877Z,8.92
2022-12-26T20:44:02.301Z,8.87
2022-12-26T20:46:50.753Z,8.85
2022-12-26T20:49:40.655Z,8.92
2022-12-26T20:52:29.143Z,8.89
2022-12-26T20:55:18.183Z,8.87
2022-12-26T20:58:06.632Z,8.80
2022-12-26T21:00:58.586Z,8.88
2022-12-26T21:03:47.247Z,8.81
2022-12-26T21:06:38.524Z,8.80
2022-12-26T21:09:27.016Z,8.78
2022-12-26T21:12:15.517Z,8.80
2022-12-26T21:15:04.058Z,8.83
2022-12-26T21:17:52.554Z,8.84
2022-12-26T21:20:41.441Z,8.87
2022-12-26T21:23:31.285Z,8.82
2022-12-26T21:26:19.749Z,8.76
2022-12-26T21:29:09.790Z,8.87
2022-12-26T21:31:59.441Z,8.84
2022-12-26T21:34:47.917Z,8.82
2022-12-26T21:37:51.887Z,8.80
2022-12-26T21:40:43.732Z,8.76
2022-12-26T21:43:32.215Z,8.73
2022-12-26T21:46:21.242Z,8.69
2022-12-26T21:49:09.697Z,8.62
2022-12-26T21:51:58.101Z,8.71
2022-12-26T21:55:04.292Z,8.62
2022-12-26T21:57:54.272Z,8.32
2022-12-26T22:00:43.274Z,8.64
2022-12-26T22:03:49.145Z,8.46
2022-12-26T22:06:38.422Z,8.36
2022-12-26T22:09:26.948Z,8.61
2022-12-26T22:12:33.085Z,8.51
2022-12-26T22:15:40.627Z,8.57
2022-12-26T22:18:30.047Z,8.32
2022-12-26T22:21:19.892Z,8.61
2022-12-26T22:24:10.614Z,8.46
2022-12-26T22:26:59.086Z,8.41
2022-12-26T22:29:47.552Z,8.43
2022-12-26T22:32:37.345Z,8.37
2022-12-26T22:35:25.901Z,8.35
2022-12-26T22:38:14.521Z,8.33
2022-12-26T22:41:03.228Z,8.22
2022-12-26T22:43:51.957Z,7.50
2022-12-26T22:46:40.683Z,8.20
2022-12-26T22:49:31.626Z,8.16
2022-12-26T22:52:20.082Z,7.88
2022-12-26T22:55:11.043Z,7.96
2022-12-26T22:58:02.280Z,7.91
2022-12-26T23:00:51.376Z,7.78
2022-12-26T23:03:39.908Z,7.89
2022-12-26T23:06:31.976Z,7.87
2022-12-26T23:09:20.834Z,7.83
2022-12-26T23:12:28.857Z,7.58
2022-12-26T23:15:20.484Z,7.66
2022-12-26T23:18:36.424Z,7.56
2022-12-26T23:21:42.129Z,7.54
2022-12-26T23:24:32.855Z,7.59
2022-12-26T23:27:38.912Z,7.44
2022-12-26T23:30:31.103Z,7.36
2022-12-26T23:33:19.575Z,7.28
2022-12-26T23:36:09.202Z,7.12
2022-12-26T23:38:58.981Z,7.29
2022-12-26T23:41:47.529Z,7.20
2022-12-26T23:44:35.998Z,7.13
2022-12-26T23:47:24.484Z,7.22
2022-12-26T23:50:14.515Z,7.20
2022-12-26T23:53:02.974Z,7.11
2022-12-26T23:55:52.810Z,6.96
2022-12-26T23:58:42.188Z,6.95
